West Kensington, United Kingdom
Current Conditions -  °F | °C
As of 10:50 AM on Friday 24 Oct 2014 (Local Time) from EGWU Reporting Station
Overcast Overcast  
Wind Chill: 59°   Ceiling: 1200
Heat Index: 59°   Visibility: 6mi
Dew Point: 57°   Wind: 7mph
Humidity: 94%   Direction: 220°SW
Pressure: 29.97"   Gusts: NA
Location:  51.5°N, 0.22°W
Report Text: EGWU 240950Z 22006KT 9999 SCT008 OVC012 15/14 Q1015 GRN BECMG BKN015 WHT
Loading
Personal Weather Stations






























Interactive Weather Map
Tropical Storm Tracking
New forecast layout! Learn more

10-Day Weather Forecast

Advertisements
Track Severe Weather on mobile